AirNav   Bose ProFlight Series 2 Headset
 
 1439 users online  

7FL5 West Palm Beach Police Station Heliport
West Palm Beach, Florida, USA

GOING TO WEST PALM BEACH?


FAA INFORMATION EFFECTIVE 02 JANUARY 2020

Location

FAA Identifier: 7FL5
Lat/Long: 26-42-50.3700N 080-03-28.2300W
26-42.839500N 080-03.470500W
26.7139917,-80.0578417
(estimated)
Elevation: 25 ft. / 8 m (estimated)
Variation: 05W (1995)
Time zone: UTC -5 (UTC -4 during Daylight Saving Time)
Zip code: 33401

Heliport Operations

Heliport use: Private use, HELIPORT USE RESTRICTED TO LAW ENFORCEMENT OFFICIALS USING ACFT 4,000 LBS OR LESS. PPR CALL 561-653-3400.
Activation date: 05/1999
Control tower: no
ARTCC: MIAMI CENTER
FSS: MIAMI FLIGHT SERVICE STATION
Attendance: UNATNDD
Segmented circle: no

Heliport Communications

WX ASOS at PBI (2.7 nm SW): 123.75 (561-683-2548)
WX AWOS-3PT at LNA (7 nm S): 119.925 (561-964-0308)
WX AWOS-3 at F45 (12 nm NW): 119.975 (561-630-6932)

Nearby radio navigation aids

VOR radial/distance  VOR name  Freq  Var
PBIr040/2.6PALM BEACH VORTAC115.7003W
PHKr097/34.2PAHOKEE VOR/DME115.4000E
FLLr015/38.8FORT LAUDERDALE VOR/DME114.4006W

 
NDB name  Hdg/Dist  Freq  Var  ID
UNITED133/18.940505WUTX ..- - -..-

Heliport Services

Runway Information

Helipad H1

Dimensions: 50 x 50 ft. / 15 x 15 m
Surface: concrete
Operational restrictions: H1 ROOFTOP.
Traffic pattern: leftleft

Heliport Ownership and Management from official FAA records

Ownership: Privately-owned
Owner: CITY OF WEST PALM BEACH
600 BANYAN BOULEVARD
WEST PALM BEACH, FL 33401
Phone 561-653-3400
Manager: SGT. DANIEL TURNER
600 BANYAN BOULEVARD
WEST PALM BEACH, FL 33401
Phone (561) 822-1623

Heliport Operational Statistics

Aircraft based on the field: 1
Helicopters: 1
    

Additional Remarks

FOR CD CTC PALM BEACH APCH AT 561-275-1430

Instrument Procedures

There are no published instrument procedures at 7FL5.

Some nearby airports with instrument procedures:

KPBI - Palm Beach International Airport (3 nm SW)
KLNA - Palm Beach County Park Airport (7 nm S)
F45 - North Palm Beach County General Aviation Airport (12 nm NW)
06FA - William P Gwinn Airport (19 nm NW)
KBCT - Boca Raton Airport (20 nm S)
 
Loc | Ops | Rwys | IFR | FBO | Links
Com | Nav | Svcs | Stats | Notes

Reliance Aviation
AirBoss

 
Area around 7FL5 (West Palm Beach Police Station Heliport)
 
Road maps at: MapQuest Bing Google
 
Aerial photo
No photo
 
Sectional chart

 
Airport distance calculator
Flying to West Palm Beach Police Station Heliport? Find the distance to fly.

From to 7FL5

Sunrise and sunset
Times for 23-Jan-2020
 Local
(UTC-5)
 Zulu
(UTC)
Morning civil twilight06:4511:45
Sunrise07:1012:10
Sunset17:5422:54
Evening civil twilight18:1923:19

Current date and time
Zulu (UTC)  23-Jan-2020 23:21:14
Local (UTC-5)  23-Jan-2020 18:21:14
 
METAR
KPBI 
3nm SW 
232253Z 08010KT 10SM SCT032 BKN039 BKN050 23/17 A3000 RMK AO2 RAB10E33 SLP158 P0002 T02280167
KLNA 
7nm S 
232255Z AUTO 07010G14KT 040V100 10SM SCT032 SCT040 BKN070 23/17 A3000 RMK AO2 T02320170 PNO
KF45 
12nm NW 
232250Z AUTO 10007KT 9SM FEW032 SCT039 BKN050 20/15 A3001 RMK AO2 TSNO
KBCT 
20nm S 
232247Z 08011KT 6SM SCT010 BKN032 21/17 A2999
TAF
KPBI 
3nm SW 
231758Z 2318/2418 07012KT P6SM VCSH SCT030 BKN050 FM240000 10005KT P6SM SCT005 SCT025 FM241500 14007KT P6SM SCT035 SCT050
NOTAMs
Click for the latest NOTAMs
NOTAMs are issued by the DoD/FAA and will open in a separate window not controlled by AirNav.

 

 
 

Would you like to see your business listed on this page?

 If your business provides an interesting product or service to pilots, flight crews, aircraft, or users of the West Palm Beach Police Station Heliport, you should consider listing it here.  To start the listing process, click on the button below
 
Add a business
 

Other Pages about West Palm Beach Police Station Heliport

Update a link
 
Copyright © AirNav, LLC. All rights reserved. Privacy Policy  Contact